Tiempo atmosférico en la estación meteorológica de Sa Pobla, Illes Balears (40 m.)



Fecha
DESCASC
Temp. máxima en grados centígrados (hora)
DESCASC
Temp. mínima en grados centígrados (hora)
DESCASC
Temp. media en grados centígrados
DESCASC
Racha de viento máxima en m/sg (hora)
DESCASC
Velocidad máxima media en intervalos de 10 minutos(hora)
DESCASC
Precipitaciones diarias en mm
DESCASC
Precipitaciones de 00:00 a 06:00 en mm
DESCASC
Precipitaciones de 06:00 a 12:00 en mm
DESCASC
Precipitaciones de 12:00 a 18:00 en mm
DESCASC
Precipitaciones de 18:00 a 24:00 en mm
DESCASC
14-12-2019 22.8 (13:40) 11.5 (23:59) 17.1 12.78 (04:00) 7.5 (04:20) 0 0 0 0 0
13-12-2019 20.4 (20:30) 12.4 (00:20) 16.4 19.17 (20:20) 7.22 (13:50) 0 0 0 0 0
12-12-2019 17.1 (12:00) 9.1 (02:00) 13.1 15.83 (06:30) 8.61 (06:30) 0 0 0 0 0
11-12-2019 18 (13:40) 2.5 (00:00) 10.3 12.22 (18:10) 5.83 (18:40) 0 0 0 0 0
10-12-2019 16.5 (15:20) 4.9 (00:00) 10.7 10.56 (13:00) 6.67 (13:50) 0 0 0 0 0
09-12-2019 18.2 (12:10) 7.7 (00:00) 13 27.78 (12:50) 13.06 (13:40) 0 0 0 0 0
08-12-2019 18.3 (15:10) 4.7 (00:00) 11.5 5.28 (16:30) 2.78 (16:30) 0.4 0.2 0 0.2 0
07-12-2019 17.6 (15:10) 5.9 (00:00) 11.8 3.61 (06:50) 2.5 (06:50) 0 0 0 0 0
06-12-2019 17.7 (13:30) 7.8 (00:00) 12.8 5.83 (13:50) 3.33 (14:00) 0 0 0 0 0
05-12-2019 18.5 (13:50) 6.2 (00:00) 12.3 3.61 (06:00) 2.78 (03:30) 0.2 0 0.2 0 0
04-12-2019 16.1 (05:50) 7.6 (00:00) 11.9 16.67 (02:10) 10.56 (02:10) 63.2 40.2 9 14 0
03-12-2019 16 (21:30) 11.8 (00:00) 13.9 13.61 (10:20) 8.61 (22:20) 4.4 0.4 0 0 4
02-12-2019 14.9 (02:50) 12.7 (00:00) 13.8 10.28 (14:50) 7.5 (15:00) 12.2 11.6 0.6 0 0
01-12-2019 20.4 (15:00) 13.6 (00:00) 17 8.06 (11:30) 4.17 (12:30) 0 0 0 0 0
30-11-2019 20.1 (14:30) 10 (00:00) 15.1 8.33 (15:20) 4.44 (11:40) 0 0 0 0 0
29-11-2019 22.3 (13:40) 10.8 (00:00) 16.5 8.33 (02:00) 3.89 (01:50) 0 0 0 0 0
28-11-2019 21.9 (13:30) 9.2 (00:00) 15.5 9.17 (15:00) 5.28 (16:00) 0 0 0 0 0
27-11-2019 22 (12:30) 10.6 (00:00) 16.3 14.17 (02:00) 7.22 (02:10) 0 0 0 0 0
26-11-2019 20 (13:10) 8.2 (00:00) 14.1 11.11 (22:20) 5.28 (15:30) 0 0 0 0 0
25-11-2019 21.2 (13:30) 5.9 (00:00) 13.6 6.67 (14:30) 3.61 (12:10) 0 0 0 0 0
24-11-2019 17 (12:00) 6.4 (00:00) 11.7 10.28 (04:10) 5 (13:20) 0 0 0 0 0
23-11-2019 18.4 (12:30) 12.8 (00:00) 15.6 15.83 (20:20) 6.11 (01:20) 2 2 0 0 0
22-11-2019 18.3 (14:50) 8.8 (00:00) 13.5 13.89 (23:40) 7.22 (23:40) 11 0.4 2 1.8 6.8
21-11-2019 17.7 (13:50) 7.3 (00:00) 12.5 9.72 (13:00) 5 (13:10) 0.8 0.8 0 0 0
20-11-2019 15.2 (15:50) 2.7 (00:00) 8.9 4.72 (14:40) 2.5 (06:10) 0 0 0 0 0
19-11-2019 16.6 (14:00) 4.3 (00:00) 10.5 5.83 (14:00) 2.78 (00:10) 0.6 0.4 0.2 0 0
18-11-2019 13.9 (15:00) 10.3 (00:00) 12.1 13.89 (16:00) 7.78 (14:00) 3.2 2 0.4 0.8 0
17-11-2019 16.4 (14:40) 9.4 (00:00) 12.9 15.28 (04:20) 6.11 (04:30) 0.2 0.2 0 0 0
16-11-2019 13.6 (12:40) 5 (00:00) 9.3 9.72 (23:40) 5 (14:00) 0.6 0.2 0 0.4 0

Gráficas

Temp. máximas Temp. mínimas Temp. medias Precipitaciones Rachas de viento máximas Velocidades máximas media en intervalos de 10 minutos

Datos horarios

Fecha y hora oficial Temperatura (ºC) Velocidad del viento (km/h) Dirección del viento Racha (km/h) Dirección de racha Precipitación (mm) Presión (hPa) Tendencia (hPa) Humedad (%)
2019-12-15 23:00:00 9.5 5 Sur 11 Sur 0 1010.5 -0.2 95
2019-12-15 22:00:00 9.9 5 Sur 9 Sur 0 1010.7 0.2 93
2019-12-15 21:00:00 10.4 5 Sur 10 Sudeste 0 1010.8 0.5 92
2019-12-15 20:00:00 10.9 5 Sur 17 Sur 0 1010.7 0.4 86
2019-12-15 19:00:00 11.8 8 Sur 14 Sur 0 1010.5 0.1 80
2019-12-15 18:00:00 13.4 8 Sur 22 Sudoeste 0 1010.3 0.1 73
2019-12-15 17:00:00 15.2 12 Sudoeste 33 Sudoeste 0 1010.3 -0.3 67
2019-12-15 16:00:00 17.1 14 Sudoeste 31 Sudoeste 0 1010.4 -0.7 57
2019-12-15 15:00:00 17.9 13 Sudoeste 29 Sur 0 1010.2 -1.4 53
2019-12-15 14:00:00 18.5 14 Sudoeste 24 Sudoeste 0 1010.6 -1.4 55
2019-12-15 13:00:00 18.5 9 Sudoeste 21 Sudoeste 0 1011.1 -0.5 58
2019-12-15 12:00:00 17.6 10 Sudoeste 19 Sudoeste 0 1011.6 0.3 65
2019-12-15 11:00:00 15.8 8 Sudoeste 16 Sur 0 1012 1.2 80
2019-12-15 10:00:00 12.4 4 Sudeste 9 Sur 0 1011.6 1 93
2019-12-15 09:00:00 9.3 3 Noroeste 9 Noroeste 0 1011.3 0.9 96
2019-12-15 08:00:00 7.8 2 Este 13 Sudoeste 0 1010.8 0.2 96
2019-12-15 07:00:00 8.7 8 Sudoeste 13 Sudoeste 0 1010.6 -0.4 96
2019-12-15 06:00:00 7.9 4 Sur 9 Sur 0 1010.4 -0.9 96
2019-12-15 05:00:00 9 4 Sudoeste 12 Sudoeste 0 1010.6 -0.7 96
2019-12-15 04:00:00 8.8 0 Calma 12 Sur 0 1011 -1 94
2019-12-15 03:00:00 10 6 Sur 12 Sur 0 1011.3 -1.1 94
2019-12-15 02:00:00 11 7 Sudoeste 15 Sudoeste 0 1011.3 -1 92
2019-12-15 01:00:00 10.7 5 Sudoeste 12 Sur 0 1012 -0.3 89
2019-12-15 00:00:00 11.5 7 Sudoeste 19 Sudoeste 0 1012.4 -0.1 86
2019-12-14 23:00:00 11.9 9 Sudoeste 21 Sudoeste 0 1012.3 0 90
2019-12-14 22:00:00 11.9 5 Oeste 15 Sudoeste 0 1012.3 0.4 91
2019-12-14 21:00:00 12.2 5 Sudoeste 12 Sudoeste 0 1012.5 1.1 90
2019-12-14 20:00:00 13 5 Sur 9 Sur 0 1012.3 1.3 82
2019-12-14 19:00:00 14.1 3 Sur 8 Sudeste 0 1011.9 1 78
2019-12-14 18:00:00 15.6 4 Sur 13 Sur 0 1011.4 0.9 74
2019-12-14 17:00:00 17.6 6 Sur 17 Sur 0 1011 0.7 67
2019-12-14 16:00:00 19.6 9 Sur 19 Sur 0 1010.9 0.5 59
2019-12-14 15:00:00 21.3 8 Sudoeste 20 Sur 0 1010.5 -0.6 49
2019-12-14 14:00:00 22 12 Este 18 Sudeste 0 1010.3 -0.5 42
2019-12-14 13:00:00 22.2 10 Nordeste 22 Norte 0 1010.4 0.2 36
2019-12-14 12:00:00 21.3 10 Sur 23 Sudoeste 0 1011.1 1.9 42
2019-12-14 11:00:00 20 7 Sudoeste 17 Sudoeste 0 1010.8 2.4 48
2019-12-14 10:00:00 18 7 Sudoeste 15 Sudoeste 0 1010.2 1.8 58
2019-12-14 09:00:00 15.5 12 Sur 22 Sur 0 1009.2 1.4 63
2019-12-14 08:00:00 13.6 7 Sur 11 Sur 0 1008.4 2 69
2019-12-14 07:00:00 15.3 3 Sudoeste 21 Sudoeste 0 1008.4 2.5 63
2019-12-14 06:00:00 16 6 Sur 23 Sudoeste 0 1007.8 1.9 64
2019-12-14 05:00:00 17.8 11 Sudoeste 46 Noroeste 0 1006.4 0.6 53
2019-12-14 04:00:00 18.7 24 Noroeste 46 Noroeste 0 1005.9 -0.2 48
2019-12-14 03:00:00 18.3 8 Noroeste 30 Oeste 0 1005.9 0.6 54
2019-12-14 02:00:00 18.6 13 Sudoeste 39 Sudoeste 0 1005.8 1.1 53
2019-12-14 01:00:00 18.1 21 Sudoeste 42 Sudoeste 0 1006.1 1.6 56
2019-12-14 00:00:00 18.8 17 Sudoeste 38 Sudoeste 0 1005.3 0.8 53
2019-12-13 23:00:00 18.6 16 Sur 35 Sur 0 1004.7 0.9 55
2019-12-13 22:00:00 18.5 9 Sudoeste 37 Oeste 0 1004.5 1.5 54
2019-12-13 21:00:00 19.8 14 Sudoeste 69 Noroeste 0 1004.5 2.4 47
2019-12-13 20:00:00 19.6 12 Sudoeste 42 Sur 0 1003.8 2.3 48
2019-12-13 19:00:00 19.3 9 Sudoeste 41 Sur 0 1003 2.6 47
2019-12-13 18:00:00 18.8 15 Sudoeste 45 Sudoeste 0 1002.1 2.5 50
2019-12-13 17:00:00 18.7 13 Sudoeste 41 Sur 0 1001.5 2.2 52
2019-12-13 16:00:00 18.9 21 Sur 52 Sudoeste 0 1000.4 0.1 52
2019-12-13 15:00:00 18.8 22 Sur 52 Sur 0 999.6 -0.7 55
2019-12-13 14:00:00 19.1 23 Sudoeste 53 Sur 0 999.3 -1.2 55
2019-12-13 13:00:00 19.3 17 Sudoeste 48 Sudoeste 0 1000.3 0.5 56
2019-12-13 12:00:00 19.5 19 Sudoeste 41 Sudoeste 0 1000.3 1.3 53
2019-12-13 11:00:00 18.3 13 Sudoeste 47 Sudoeste 0 1000.5 1.7 62
2019-12-13 10:00:00 17.2 21 Sudoeste 45 Sudoeste 0 999.8 0.5 65
2019-12-13 09:00:00 16.4 22 Sudoeste 50 Sudoeste 0 999 -0.6 67
2019-12-13 08:00:00 15.9 23 Sudoeste 48 Sudoeste 0 998.8 -0.8 68
2019-12-13 07:00:00 15.9 22 Sudoeste 43 Sudoeste 0 999.3 -1.2 66
2019-12-13 06:00:00 15.7 18 Sudoeste 41 Sudoeste 0 999.6 -1.9 64
2019-12-13 05:00:00 15.7 17 Sudoeste 39 Sudoeste 0 999.6 -1.7 62
2019-12-13 04:00:00 15.5 19 Sudoeste 47 Sudoeste 0 1000.5 -1.1 63
2019-12-13 03:00:00 15.4 21 Sudoeste 47 Sudoeste 0 1001.5 -1 60
2019-12-13 02:00:00 15.2 21 Sudoeste 48 Sudoeste 0 1001.3 -2 61
2019-12-13 01:00:00 14.5 17 Sudoeste 39 Sudoeste 0 1001.6 -2.4 62
2019-12-13 00:00:00 12.7 14 Sudoeste 35 Sudoeste 0 1002.5 -2.2 68
2019-12-12 23:00:00 14 13 Sudoeste 30 Sudoeste 0 1003.3 -2.1 62
2019-12-12 22:00:00 14.3 13 Sudoeste 35 Sudoeste 0 1004 -2.2 59
2019-12-12 21:00:00 12.7 10 Sudoeste 26 Sudoeste 0 1004.7 -1.6 70
2019-12-12 20:00:00 11.6 10 Sur 22 Sur 0 1005.4 -2 75
2019-12-12 19:00:00 12 12 Sudoeste 22 Sudoeste 0 1006.2 -1.9 74
2019-12-12 18:00:00 12.3 8 Sur 20 Sudoeste 0 1006.3 -2.1 68
2019-12-12 17:00:00 13.9 7 Sur 17 Sudoeste 0 1007.4 -2.2 57
2019-12-12 16:00:00 15 5 Sudoeste 21 Sudoeste 0 1008.1 -2.7 51
2019-12-12 15:00:00 16.2 8 Sudoeste 25 Oeste 0 1008.4 -3.1 47
2019-12-12 14:00:00 16.5 13 Sudoeste 28 Sudoeste 0 1009.6 -3 43
2019-12-12 13:00:00 16.5 12 Sudoeste 33 Sudoeste 0 1010.8 -1.9 45
2019-12-12 12:00:00 16.9 9 Sudoeste 39 Sudoeste 0 1011.5 -1.3 45
2019-12-12 11:00:00 14.6 8 Oeste 24 Sur 0 1012.6 -0.2 48
2019-12-12 10:00:00 13.6 6 Sur 22 Sudeste 0 1012.7 0.6 54
2019-12-12 09:00:00 13.2 6 Oeste 24 Noroeste 0 1012.8 0.5 53
2019-12-12 08:00:00 11.7 8 Sur 37 Noroeste 0 1012.8 0.1 57
2019-12-12 07:00:00 13.4 18 Noroeste 57 Noroeste 0 1012.1 -1.1 45
2019-12-12 06:00:00 13.6 23 Noroeste 39 Noroeste 0 1012.3 -1.6 48
2019-12-12 05:00:00 13.5 21 Noroeste 42 Noroeste 0 1012.7 -1.5 50
2019-12-12 04:00:00 12.6 8 Oeste 39 Noroeste 0 1013.2 -1.3 55
2019-12-12 03:00:00 12.7 11 Oeste 39 Sudoeste 0 1013.9 -1 51
2019-12-12 02:00:00 9.1 7 Oeste 20 Sudoeste 0 1014.2 -0.5 88
2019-12-12 01:00:00 10.2 6 Sur 10 Noroeste 0 1014.5 0 87
2019-12-12 00:00:00 9.9 6 Sudoeste 13 Sudoeste 0 1014.9 0.9 86
2019-12-11 23:00:00 10.9 5 Noroeste 14 Norte 0 1014.7 1.3 82
2019-12-11 22:00:00 11.6 9 Norte 27 Norte 0 1014.5 1.7 80
2019-12-11 21:00:00 12.8 13 Norte 24 Norte 0 1014 2.3 67
2019-12-11 20:00:00 12.8 10 Norte 32 Noroeste 0 1013.4 2.6 73
2019-12-11 19:00:00 13.6 17 Noroeste 44 Noroeste 0 1012.8 2.4 66
2019-12-11 18:00:00 15.3 20 Noroeste 39 Noroeste 0 1011.7 1.1 52
2019-12-11 17:00:00 14.9 5 Noroeste 13 Noroeste 0 1010.8 -0.3 59
2019-12-11 16:00:00 16.1 7 Sur 29 Sudoeste 0 1010.4 -2.2 62
2019-12-11 15:00:00 16.4 13 Sudoeste 30 Sur 0 1010.6 -3.2 60
2019-12-11 14:00:00 17.3 17 Sur 31 Sur 0 1011.1 -4.1 63
2019-12-11 13:00:00 17.6 13 Sur 28 Sudoeste 0 1012.6 -2.7 65
2019-12-11 12:00:00 15.6 10 Sur 22 Sudoeste 0 1013.8 -1.8 66
2019-12-11 11:00:00 12.2 3 Sudoeste 8 Sudoeste 0 1015.2 -0.5 82
2019-12-11 10:00:00 9.2 4 Sur 12 Sudoeste 0 1015.3 -1 86
2019-12-11 09:00:00 4.4 4 Sudoeste 13 Sudoeste 0 1015.6 -1.1 93
2019-12-11 08:00:00 3 7 Sur 15 Sudoeste 0 1015.7 -1.7 95
2019-12-11 07:00:00 2.8 6 Sudoeste 11 Sur 0 1016.3 -1.4 96
2019-12-11 06:00:00 3 6 Sudoeste 9 Sudoeste 0 1016.7 -1.4 96
2019-12-11 05:00:00 3.3 5 Sudoeste 14 Sudoeste 0 1017.4 -1.3 96
2019-12-11 04:00:00 3.3 7 Sudoeste 13 Sudoeste 0 1017.7 -1.5 96
2019-12-11 03:00:00 3.2 3 Sudeste 10 Oeste 0 1018.1 -1.2 96
2019-12-11 02:00:00 4.1 3 Oeste 13 Sudoeste 0 1018.7 -0.4 95
2019-12-11 01:00:00 4.4 4 Sudoeste 10 Sur 0 1019.2 0.2 95
2019-12-11 00:00:00 4.9 4 Oeste 8 Sudoeste 0 1019.3 0.1 94
2019-12-10 23:00:00 5.4 3 Sur 10 Sudoeste 0 1019.1 -0.2 93
2019-12-10 22:00:00 6 4 Sudoeste 12 Sudoeste 0 1019 0 92
2019-12-10 21:00:00 6.7 6 Sur 9 Sur 0 1019.2 0.5 90
2019-12-10 20:00:00 7.7 4 Sur 7 Oeste 0 1019.3 0.6 86
2019-12-10 19:00:00 9.2 3 Norte 9 Sudeste 0 1019 0.4 79
2019-12-10 18:00:00 11.8 5 Sur 12 Sudoeste 0 1018.7 0.1 69
2019-12-10 17:00:00 13.9 6 Sudoeste 16 Sudoeste 0 1018.7 -0.4 60
2019-12-10 16:00:00 16 4 Este 14 Este 0 1018.6 -1.6 38
2019-12-10 15:00:00 15.9 9 Norte 32 Nordeste 0 1018.6 -2.6 35
2019-12-10 14:00:00 15.7 23 Nordeste 38 Norte 0 1019.1 -2.7 33
2019-12-10 13:00:00 16 17 Norte 38 Norte 0 1020.2 -1.2 32
2019-12-10 12:00:00 15.2 15 Nordeste 27 Norte 0 1021.2 0.4 44
2019-12-10 11:00:00 14.8 13 Norte 28 Nordeste 0 1021.8 1.9 44
2019-12-10 10:00:00 13.7 15 Nordeste 28 Nordeste 0 1021.4 2.1 62
2019-12-10 09:00:00 11.6 11 Norte 30 Norte 0 1020.8 1.9 67
2019-12-10 08:00:00 11.7 10 Norte 28 Norte 0 1019.9 0.7 69
2019-12-10 07:00:00 12.3 12 Norte 33 Norte 0 1019.3 0.5 64
2019-12-10 06:00:00 11.9 4 Oeste 18 Noroeste 0 1018.9 0.2 66
2019-12-10 05:00:00 12.5 4 Noroeste 27 Norte 0 1019.2 0.4 65
2019-12-10 04:00:00 13 6 Noroeste 23 Noroeste 0 1018.8 -0.4 59
2019-12-10 03:00:00 13.1 13 Noroeste 30 Norte 0 1018.7 -0.1 61
2019-12-10 02:00:00 13.2 15 Noroeste 32 Noroeste 0 1018.8 0.4 59
2019-12-10 01:00:00 12.9 9 Oeste 29 Oeste 0 1019.2 1.6 61
2019-12-10 00:00:00 13.1 8 Oeste 33 Noroeste 0 1018.8 1.3 60
2019-12-09 23:00:00 13.8 11 Oeste 41 Oeste 0 1018.4 1.2 57
2019-12-09 22:00:00 14.4 24 Noroeste 53 Noroeste 0 1017.6 0.3 53
2019-12-09 21:00:00 14.7 27 Noroeste 51 Noroeste 0 1017.5 0.8 55
2019-12-09 20:00:00 14.9 26 Noroeste 48 Noroeste 0 1017.2 2.4 56
2019-12-09 19:00:00 14.9 10 Oeste 33 Oeste 0 1017.3 3.3 55
2019-12-09 18:00:00 14.8 10 Oeste 56 Noroeste 0 1016.7 3 54
2019-12-09 17:00:00 14.9 31 Noroeste 67 Noroeste 0 1014.8 1.5 52
2019-12-09 16:00:00 15.7 31 Noroeste 77 Noroeste 0 1014 0.7 51
2019-12-09 15:00:00 16.1 33 Noroeste 85 Noroeste 0 1013.7 -1.8 48
2019-12-09 14:00:00 16.3 44 Noroeste 87 Noroeste 0 1013.3 -3.9 46
2019-12-09 13:00:00 16.1 42 Noroeste 100 Noroeste 0 1013.3 -4.1 42
2019-12-09 12:00:00 18.1 19 Oeste 61 Oeste 0 1015.5 -0.6 29
2019-12-09 11:00:00 17.3 16 Oeste 46 Oeste 0 1017.2 1.2 38
2019-12-09 10:00:00 16.1 8 Norte 30 Este 0 1017.4 1.4 47
2019-12-09 09:00:00 9.4 7 Sur 12 Sur 0 1016.1 -0.1 98
2019-12-09 08:00:00 7.7 3 Oeste 9 Sur 0 1016 0 97
2019-12-09 07:00:00 8.8 4 Sudoeste 13 Sudoeste 0 1016 -0.1 97
2019-12-09 06:00:00 9.8 3 Sur 11 Noroeste 0 1016.2 -0.7 97
2019-12-09 05:00:00 10.2 4 Este 13 Oeste 0 1016 -1.2 95
2019-12-09 04:00:00 11.7 8 Sudoeste 13 Sudoeste 0 1016.1 -1.1 96
2019-12-09 03:00:00 11.8 5 Sudoeste 12 Nordeste 0 1016.9 -0.1 96
2019-12-09 02:00:00 11.7 5 Noroeste 8 Este 0 1017.2 0.1 95
2019-12-09 01:00:00 12.1 5 Sudeste 19 Norte 0 1017.2 -0.3 94
2019-12-09 00:00:00 11.7 6 Sur 13 Sudoeste 0 1017 -0.5 96
2019-12-08 23:00:00 10.4 6 Sur 14 Sur 0 1017.1 -0.5 95
2019-12-08 22:00:00 10.1 6 Sur 10 Sudeste 0 1017.5 0.1 94
2019-12-08 21:00:00 10.4 5 Sudeste 14 Sudoeste 0 1017.5 0.3 91
2019-12-08 20:00:00 11 4 Norte 11 Sudoeste 0 1017.6 0.4 89
2019-12-08 19:00:00 12.6 8 Sudoeste 19 Sur 0 1017.4 0.2 85
2019-12-08 18:00:00 13.5 5 Sudoeste 17 Oeste 0 1017.2 0.1 81
2019-12-08 17:00:00 15.3 9 Sudoeste 19 Sur 0 1017.2 -0.6 73
2019-12-08 16:00:00 17.7 8 Sur 16 Sudoeste 0 1017.2 -1.5 67
2019-12-08 15:00:00 18.1 6 Sudoeste 13 Sudoeste 0 1017.1 -2.6 66
2019-12-08 14:00:00 17.3 3 Oeste 13 Sudoeste 0 1017.8 -2.3 68
2019-12-08 13:00:00 15.2 3 Sudeste 9 Sudeste 0.2 1018.7 -1.3 91
2019-12-08 12:00:00 13 5 Sur 9 Sudeste 0 1019.7 0 99
2019-12-08 11:00:00 11.3 5 Sudoeste 12 Sudoeste 0 1020.1 0.7 99
2019-12-08 10:00:00 9.1 4 Sudeste 8 Sudeste 0 1020 0.8 99
2019-12-08 09:00:00 6.4 4 Sudoeste 6 Sudoeste 0 1019.7 0.8 99
2019-12-08 08:00:00 5 6 Sur 9 Sur 0 1019.4 0.4 99
2019-12-08 07:00:00 5.1 6 Sur 10 Sur 0 1019.2 -0.1 98
2019-12-08 06:00:00 5.6 7 Sur 10 Sur 0 1018.9 -0.6 98
2019-12-08 05:00:00 5.7 6 Sur 15 Sudoeste 0 1019 -0.9 98
2019-12-08 04:00:00 5.6 6 Sudoeste 10 Sudoeste 0.2 1019.3 -0.8 98
2019-12-08 03:00:00 6 5 Sur 10 Sudoeste 0 1019.5 -0.9 98
2019-12-08 02:00:00 6.4 8 Sur 11 Sur 0 1019.9 -0.3 97
2019-12-08 01:00:00 6.9 6 Sudoeste 9 Sudoeste 0 1020.1 0.3 97
2019-12-08 00:00:00 7.4 5 Sudoeste 10 Sudoeste 0 1020.4 0.9 97
2019-12-07 23:00:00 7.8 6 Sur 9 Sur 0 1020.2 0.8 97
2019-12-07 22:00:00 8.2 4 Sudoeste 8 Sudoeste 0 1019.8 0.6 96
2019-12-07 21:00:00 9.1 5 Sur 8 Sudoeste 0 1019.5 0.7 96
2019-12-07 20:00:00 9.8 5 Oeste 7 Sudoeste 0 1019.4 0.8 95
2019-12-07 19:00:00 10.5 2 Oeste 4 Noroeste 0 1019.2 0.8 93
2019-12-07 18:00:00 12 0 Calma 5 Nordeste 0 1018.8 0.5 91
2019-12-07 17:00:00 14.2 2 Nordeste 3 Nordeste 0 1018.6 0 86
2019-12-07 16:00:00 15.9 3 Norte 10 Norte 0 1018.4 -1.1 83
2019-12-07 15:00:00 17.3 3 Sudeste 6 Sur 0 1018.3 -1.8 75
2019-12-07 14:00:00 15.6 2 Este 9 Sudeste 0 1018.6 -1.8 82
2019-12-07 13:00:00 16.6 5 Sudeste 10 Sudeste 0 1019.5 -0.5 81
2019-12-07 12:00:00 15.1 4 Sudeste 8 Sudeste 0 1020.1 0.3 93
2019-12-07 11:00:00 11.3 5 Sur 12 Sudeste 0 1020.4 1.2 99
2019-12-07 10:00:00 8.2 3 Sur 10 Sur 0 1020 1 99
2019-12-07 09:00:00 6.3 5 Sur 10 Sur 0 1019.8 0.9 98
2019-12-07 08:00:00 6.2 5 Sur 12 Sudoeste 0 1019.2 -0.2 98
2019-12-07 07:00:00 6.5 8 Sudoeste 13 Sudoeste 0 1019 -0.6 98
2019-12-07 06:00:00 6.2 6 Sur 13 Sudoeste 0 1018.9 -0.8 98
2019-12-07 05:00:00 6.6 9 Sudoeste 12 Sudoeste 0 1019.4 0.4 98
2019-12-07 04:00:00 7.1 4 Sur 9 Sudoeste 0 1019.6 0.6 98
2019-12-07 03:00:00 7.6 7 Sudoeste 12 Sudoeste 0 1019.7 0 98
2019-12-07 02:00:00 7.8 4 Sudoeste 11 Sur 0 1019 -0.8 97
2019-12-07 01:00:00 8.5 6 Sur 8 Sur 0 1019 -0.7 97
2019-12-07 00:00:00 9.2 5 Sudoeste 9 Sudoeste 0 1019.7 0.1 97
2019-12-06 23:00:00 9.5 3 Sur 7 Sudoeste 0 1019.8 0.3 96
2019-12-06 22:00:00 10.6 4 Sudoeste 10 Sudoeste 0 1019.7 0.7 95
2019-12-06 21:00:00 11.7 5 Sudoeste 8 Sudoeste 0 1019.6 1.1 95
2019-12-06 20:00:00 12.5 2 Sudoeste 7 Noroeste 0 1019.5 1.4 94
2019-12-06 19:00:00 12.3 4 Noroeste 5 Noroeste 0 1019 0.9 93
2019-12-06 18:00:00 13 3 Nordeste 7 Nordeste 0 1018.5 0.4 89
2019-12-06 17:00:00 15.2 4 Nordeste 14 Este 0 1018.1 -0.4 83
2019-12-06 16:00:00 16.7 7 Nordeste 17 Nordeste 0 1018.1 -0.8 77
2019-12-06 15:00:00 17.2 9 Nordeste 18 Nordeste 0 1018.1 -1.5 76
2019-12-06 14:00:00 17 12 Nordeste 21 Este 0 1018.5 -1.5 79
2019-12-06 13:00:00 16.8 7 Este 14 Este 0 1018.9 -0.9 82
2019-12-06 12:00:00 16.7 5 Nordeste 9 Nordeste 0 1019.6 0.5 89
2019-12-06 11:00:00 14 0 Calma 10 Sur 0 1020 1.3 97
2019-12-06 10:00:00 9.8 4 Sur 9 Sur 0 1019.8 1.4 99
2019-12-06 09:00:00 8.4 5 Sur 10 Sur 0 1019.1 1.2 98
2019-12-06 08:00:00 8 8 Sudoeste 11 Sur 0 1018.7 0.8 98
2019-12-06 07:00:00 8.1 5 Sur 10 Sur 0 1018.4 0.8 98
2019-12-06 06:00:00 8.4 6 Sudoeste 13 Sudoeste 0 1017.9 0.1 98
2019-12-06 05:00:00 8.2 5 Sudoeste 12 Sur 0 1017.9 0.3 98
2019-12-06 04:00:00 8.1 4 Sur 10 Sudoeste 0 1017.6 0 98
2019-12-06 03:00:00 8.3 8 Sudoeste 12 Sur 0 1017.8 -0.2 98
2019-12-06 02:00:00 8.4 5 Sudoeste 11 Sur 0 1017.6 0.2 97
2019-12-06 01:00:00 8.4 5 Sur 9 Sur 0 1017.6 0.6 97
2019-12-06 00:00:00 8.7 6 Sur 11 Sur 0 1018 1.3 97
2019-12-05 23:00:00 9.3 7 Sur 10 Sur 0 1017.4 1.1 96
2019-12-05 22:00:00 10.2 4 Oeste 10 Sudoeste 0 1017 1.4 96
2019-12-05 21:00:00 10.5 6 Sur 8 Sur 0 1016.7 2 95
2019-12-05 20:00:00 11.2 3 Sudoeste 8 Oeste 0 1016.3 2.3 94
2019-12-05 19:00:00 12.5 5 Oeste 6 Oeste 0 1015.6 2.1 93
2019-12-05 18:00:00 13.7 0 Calma 11 Nordeste 0 1014.7 1.7 87
2019-12-05 17:00:00 15.6 8 Nordeste 12 Nordeste 0 1014 1.4 80
2019-12-05 16:00:00 17.2 3 Sur 12 Sur 0 1013.5 1.2 69
2019-12-05 15:00:00 16.7 8 Sur 13 Sur 0 1013 0.5 76
2019-12-05 14:00:00 17.4 7 Sur 12 Sudeste 0 1012.6 0.3 66
2019-12-05 13:00:00 17.6 7 Sur 13 Sur 0 1012.3 0.5 70
2019-12-05 12:00:00 16.6 6 Sur 13 Sudoeste 0 1012.5 1.8 82
2019-12-05 11:00:00 14.3 2 Sudeste 11 Sur 0 1012.3 2.4 92
2019-12-05 10:00:00 11 2 Sur 10 Sur 0 1011.8 2.7 98
2019-12-05 09:00:00 7.9 6 Sur 12 Sur 0 1010.7 2.5 99
2019-12-05 08:00:00 6.4 3 Sudoeste 12 Sur 0 1009.9 2.1 99
2019-12-05 07:00:00 6.3 5 Sur 12 Sudoeste 0.2 1009.1 1.6 98
2019-12-05 06:00:00 6.7 9 Sur 13 Sur 0 1008.2 1 99
2019-12-05 05:00:00 6.8 6 Sur 8 Sur 0 1007.8 1.5 98
2019-12-05 04:00:00 7.2 3 Oeste 13 Sur 0 1007.5 1.6 98
2019-12-05 03:00:00 7 5 Sudoeste 9 Sur 0 1007.2 1.4 98
2019-12-05 02:00:00 7.1 6 Sur 12 Sur 0 1006.3 1.2 98
2019-12-05 01:00:00 7.1 8 Sur 13 Sur 0 1005.9 1.3 98
2019-12-05 00:00:00 7.6 6 Sur 14 Sudoeste 0 1005.8 1.6 98
2019-12-04 23:00:00 8 6 Sudoeste 9 Sudoeste 0 1005.1 1.4 98
2019-12-04 22:00:00 8.3 5 Sur 8 Sur 0 1004.6 1.9 98
2019-12-04 21:00:00 8.9 6 Sur 8 Sur 0 1004.2 2.1 97
2019-12-04 20:00:00 9.7 6 Sudoeste 10 Sudoeste 0 1003.7 2.3 97
2019-12-04 19:00:00 9.9 2 Nordeste 8 Noroeste 0 1002.7 2.2 96
2019-12-04 18:00:00 10.8 4 Oeste 9 Noroeste 0 1002.1 1.2 96
2019-12-04 17:00:00 11.7 5 Noroeste 9 Norte 0 1001.4 0.5 95
2019-12-04 16:00:00 11.6 7 Noroeste 16 Norte 0 1000.5 -0.6 96
2019-12-04 15:00:00 10.9 10 Norte 23 Norte 0.6 1000.9 0.5 95
2019-12-04 14:00:00 10.9 10 Nordeste 19 Norte 2.8 1000.9 0.2 95
2019-12-04 13:00:00 11.4 9 Nordeste 22 Sudoeste 10.6 1001.1 -0.2 93
2019-12-04 12:00:00 14.4 12 Nordeste 41 Nordeste 1.4 1000.4 -0.2 91
2019-12-04 11:00:00 15.6 17 Nordeste 31 Nordeste 0 1000.7 -0.1 84
2019-12-04 10:00:00 15 14 Nordeste 26 Nordeste 0.4 1001.3 1.3 90
2019-12-04 09:00:00 12.1 10 Noroeste 18 Norte 0 1000.6 -0.1 92
2019-12-04 08:00:00 12.1 6 Noroeste 57 Sudeste 4.2 1000.8 -0.3 89
2019-12-04 07:00:00 15.6 9 Este 50 Este 3 1000 -2.1 94
2019-12-04 06:00:00 16.1 24 Este 49 Este 0 1000.7 -2.1 92
2019-12-04 05:00:00 15.6 26 Este 46 Este 4.2 1001.1 -1.8 97
2019-12-04 04:00:00 14 12 Nordeste 54 Nordeste 16.6 1002.1 -2.4 98
2019-12-04 03:00:00 15.2 21 Este 60 Nordeste 10.2 1002.8 -2.6 99
2019-12-04 02:00:00 15.4 32 Nordeste 55 Nordeste 4.4 1002.9 -4 98
2019-12-04 01:00:00 15.6 26 Nordeste 57 Nordeste 4.8 1004.5 -2.9 97
2019-12-04 00:00:00 15.6 30 Nordeste 47 Nordeste 2 1005.4 -2.4 95
2019-12-03 23:00:00 15.6 24 Nordeste 47 Nordeste 2 1006.9 -1 94
2019-12-03 22:00:00 15.9 23 Nordeste 41 Nordeste 0 1007.4 -0.3 88
2019-12-03 21:00:00 15.8 19 Nordeste 42 Nordeste 0 1007.8 -0.3 85
2019-12-03 20:00:00 15.6 23 Nordeste 42 Nordeste 0 1007.9 -0.5 84
2019-12-03 19:00:00 15 24 Nordeste 39 Nordeste 0 1007.7 -1 80
2019-12-03 18:00:00 14.8 20 Nordeste 38 Nordeste 0 1008.1 -1.3 78
2019-12-03 17:00:00 14.4 22 Nordeste 38 Nordeste 0 1008.4 -1.9 77
2019-12-03 16:00:00 14.4 24 Nordeste 41 Nordeste 0 1008.7 -2.4 75
2019-12-03 15:00:00 15 21 Nordeste 40 Nordeste 0 1009.4 -2.6 74
2019-12-03 14:00:00 15.7 25 Nordeste 41 Nordeste 0 1010.3 -2.7 72
2019-12-03 13:00:00 14.5 19 Norte 35 Norte 0 1011.1 -2 74
2019-12-03 12:00:00 13.1 23 Norte 41 Norte 0 1012 -1.2 72
2019-12-03 11:00:00 12.7 24 Norte 49 Nordeste 0 1013 0.3 70
2019-12-03 10:00:00 12.5 26 Norte 41 Norte 0 1013.1 0.9 70
2019-12-03 09:00:00 12 23 Nordeste 44 Norte 0 1013.2 0.8 72
2019-12-03 08:00:00 11.9 26 Nordeste 45 Nordeste 0 1012.7 0.2 72
2019-12-03 07:00:00 12.1 27 Norte 43 Norte 0 1012.2 -0.9 71
2019-12-03 06:00:00 12.1 24 Norte 41 Nordeste 0 1012.4 -0.6 71
2019-12-03 05:00:00 12.2 26 Norte 40 Norte 0 1012.5 -0.5 72
2019-12-03 04:00:00 12 22 Nordeste 39 Norte 0.2 1013.1 -0.4 77
2019-12-03 03:00:00 12.4 24 Norte 36 Nordeste 0.2 1013 -0.7 75
2019-12-03 02:00:00 12.9 25 Norte 38 Nordeste 0 1013 -0.6 71
2019-12-03 01:00:00 12.9 22 Norte 38 Norte 0 1013.5 -0.1 73
2019-12-03 00:00:00 13.1 20 Norte 36 Norte 0 1013.7 0.3 72
2019-12-02 23:00:00 13.3 23 Norte 34 Norte 0 1013.6 0.3 70
2019-12-02 22:00:00 13.2 20 Nordeste 35 Norte 0 1013.6 1.2 73
2019-12-02 21:00:00 13 20 Norte 30 Norte 0 1013.4 1.4 74
2019-12-02 20:00:00 12.9 14 Nordeste 31 Norte 0 1013.3 1.4 75
2019-12-02 19:00:00 12.9 19 Nordeste 31 Nordeste 0 1012.4 0.6 74
2019-12-02 18:00:00 13.1 19 Norte 33 Norte 0 1012 0.6 74
2019-12-02 17:00:00 13.8 23 Norte 32 Norte 0 1011.9 0.1 72
2019-12-02 16:00:00 14.2 21 Nordeste 36 Norte 0 1011.8 -0.2 73
2019-12-02 15:00:00 14.7 27 Norte 37 Nordeste 0 1011.4 -1.1 70
2019-12-02 14:00:00 14.3 22 Norte 36 Norte 0 1011.8 -0.3 79
2019-12-02 13:00:00 14.5 21 Nordeste 33 Nordeste 0 1012 0.6 83
2019-12-02 12:00:00 14.1 20 Norte 29 Norte 0 1012.5 1.5 78
2019-12-02 11:00:00 14 18 Norte 31 Norte 0 1012.1 2.1 84
2019-12-02 10:00:00 13.7 17 Nordeste 26 Nordeste 0 1011.4 1.9 89
2019-12-02 09:00:00 13.6 15 Norte 26 Norte 0 1011 1.9 89
2019-12-02 08:00:00 13.3 14 Norte 25 Norte 0 1010 1.6 95
2019-12-02 07:00:00 13.4 11 Norte 25 Nordeste 0.6 1009.5 1.1 98
2019-12-02 06:00:00 13.5 11 Nordeste 23 Norte 5.2 1009.1 0.8 98
2019-12-02 05:00:00 13.7 15 Norte 32 Norte 4 1008.4 0.4 97
2019-12-02 04:00:00 14.6 12 Nordeste 22 Norte 2.4 1008.4 -0.3 94
2019-12-02 03:00:00 14.9 12 Nordeste 21 Nordeste 0 1008.3 -0.6 93
2019-12-02 02:00:00 14.4 8 Nordeste 15 Norte 0 1008 -0.9 92
2019-12-02 01:00:00 14.3 5 Norte 9 Noroeste 0 1008.7 0.2 92
2019-12-02 00:00:00 14.4 5 Norte 9 Norte 0 1008.9 0.3 91
2019-12-01 23:00:00 14.4 4 Norte 8 Norte 0 1008.9 0.6 92
2019-12-01 22:00:00 14 4 Norte 6 Nordeste 0 1008.5 0.6 91
2019-12-01 21:00:00 14.3 4 Nordeste 6 Nordeste 0 1008.6 1 90
2019-12-01 20:00:00 14.4 4 Sudeste 6 Sudeste 0 1008.3 1.2 88
2019-12-01 19:00:00 15.3 3 Sudeste 11 Sur 0 1007.9 1 81
2019-12-01 18:00:00 16.5 2 Sudeste 10 Sur 0 1007.6 0.7 78
2019-12-01 17:00:00 17.1 6 Sur 25 Sudoeste 0 1007.1 0.2 75
2019-12-01 16:00:00 19.5 10 Sudoeste 26 Sur 0 1006.9 -0.4 65
2019-12-01 15:00:00 20.1 12 Sudoeste 28 Sudoeste 0 1006.9 -1.2 63
2019-12-01 14:00:00 20 12 Sur 26 Sudoeste 0 1006.9 -1.7 65
2019-12-01 13:00:00 19.5 13 Sudoeste 29 Sudoeste 0 1007.3 -1.4 67
2019-12-01 12:00:00 18.2 13 Sudoeste 29 Sudoeste 0 1008.1 -0.5 77
2019-12-01 11:00:00 17.2 12 Sur 25 Sur 0 1008.6 0.2 86
2019-12-01 10:00:00 16.1 8 Sur 16 Sur 0 1008.7 0.3 93
2019-12-01 09:00:00 14.7 6 Sudoeste 17 Sudoeste 0 1008.6 0.2 95
2019-12-01 08:00:00 13.7 8 Sudoeste 15 Sudoeste 0 1008.4 -0.5 96
2019-12-01 07:00:00 13.9 8 Sudoeste 16 Sur 0 1008.4 -0.9 96
2019-12-01 06:00:00 13.8 9 Sudoeste 15 Sur 0 1008.4 -1.6 96
2019-12-01 05:00:00 14.3 7 Sur 19 Sur 0 1008.9 -1.4 96
2019-12-01 04:00:00 14.9 9 Sur 15 Sur 0 1009.3 -1.7 96
2019-12-01 03:00:00 14.7 8 Sur 13 Sur 0 1010 -1.4 97
2019-12-01 02:00:00 14.4 6 Sur 14 Sudoeste 0 1010.3 -1.3 97
2019-12-01 01:00:00 14.1 7 Sudoeste 14 Sudoeste 0 1011 -1.1 97
2019-12-01 00:00:00 14 6 Sudoeste 17 Sur 0 1011.4 -0.9 96
2019-11-30 23:00:00 14.1 9 Sur 17 Sur 0 1011.6 -0.9 95
2019-11-30 22:00:00 14.5 8 Sur 15 Sur 0 1012.1 -0.5 94
2019-11-30 21:00:00 14.8 8 Sur 17 Sur 0 1012.3 -0.7 93
2019-11-30 20:00:00 14.9 9 Sur 15 Sur 0 1012.5 -0.5 92
2019-11-30 19:00:00 15 7 Sur 12 Sur 0 1012.6 -0.6 89
2019-11-30 18:00:00 16 8 Sudoeste 19 Sudoeste 0 1013 -0.8 81
2019-11-30 17:00:00 17.4 11 Sudoeste 30 Sudoeste 0 1013 -1.3 73
2019-11-30 16:00:00 19.2 10 Sudoeste 30 Sudoeste 0 1013.2 -2 66
2019-11-30 15:00:00 19.7 13 Sudoeste 27 Sur 0 1013.8 -2.5 64
2019-11-30 14:00:00 19.9 13 Sudoeste 28 Sudoeste 0 1014.3 -2.4 65
2019-11-30 13:00:00 19.4 11 Sudoeste 27 Sur 0 1015.2 -1.4 69
2019-11-30 12:00:00 18.7 13 Sur 28 Sur 0 1016.3 -0.5 76
2019-11-30 11:00:00 17.5 13 Sudoeste 26 Sudoeste 0 1016.7 -0.1 85
2019-11-30 10:00:00 14.7 10 Sur 20 Sudoeste 0 1016.6 0.1 96
2019-11-30 09:00:00 12 9 Sudoeste 19 Sudoeste 0 1016.8 0.5 98
2019-11-30 08:00:00 10 6 Sudoeste 10 Sudoeste 0 1016.8 -0.1 97
2019-11-30 07:00:00 10.3 6 Sudoeste 9 Sudoeste 0 1016.5 -0.4 96
2019-11-30 06:00:00 10.8 5 Sudoeste 11 Sudoeste 0 1016.3 -0.9 96
2019-11-30 05:00:00 11 6 Sudoeste 11 Sudoeste 0 1016.9 -0.3 96
2019-11-30 04:00:00 10.8 6 Sur 9 Sur 0 1016.9 -0.4 96
2019-11-30 03:00:00 10.8 7 Sur 11 Sudoeste 0 1017.2 -0.6 96
2019-11-30 02:00:00 10.9 6 Sudoeste 12 Sudoeste 0 1017.2 -0.2 96
2019-11-30 01:00:00 10.5 7 Sudoeste 10 Sur 0 1017.3 0 95
2019-11-30 00:00:00 10.8 4 Sudoeste 9 Sur 0 1017.8 0.8 94
2019-11-29 23:00:00 11 4 Sudoeste 8 Sudoeste 0 1017.4 0.6 94
2019-11-29 22:00:00 11.8 6 Oeste 8 Oeste 0 1017.3 0.9 93
2019-11-29 21:00:00 11.9 5 Sudoeste 12 Sudeste 0 1017 1.2 92
2019-11-29 20:00:00 12.6 2 Sudoeste 6 Sudoeste 0 1016.8 1.6 88
2019-11-29 19:00:00 14.1 2 Sudoeste 8 Norte 0 1016.4 2 81
2019-11-29 18:00:00 16.1 3 Norte 8 Sur 0 1015.8 1.5 75
2019-11-29 17:00:00 19.1 4 Sur 14 Este 0 1015.2 1 63
2019-11-29 16:00:00 20.5 9 Nordeste 15 Nordeste 0 1014.4 -0.1 52
2019-11-29 15:00:00 20.9 8 Este 18 Nordeste 0 1014.3 -0.3 52
2019-11-29 14:00:00 22.1 5 Nordeste 10 Nordeste 0 1014.2 -0.2 46
2019-11-29 13:00:00 21.7 6 Sudeste 10 Sur 0 1014.5 1 50
2019-11-29 12:00:00 21 4 Sur 12 Este 0 1014.6 1.6 53
2019-11-29 11:00:00 19.1 3 Sudoeste 17 Sudoeste 0 1014.4 2.3 62
2019-11-29 10:00:00 14.9 5 Sudoeste 13 Sudoeste 0 1013.5 1.8 84
2019-11-29 09:00:00 11.6 5 Sudoeste 10 Sudoeste 0 1013 1.9 93
2019-11-29 08:00:00 10.9 4 Sudoeste 12 Sudoeste 0 1012.1 1.3 93
2019-11-29 07:00:00 11.4 6 Sur 10 Sudeste 0 1011.7 1.2 91
2019-11-29 06:00:00 11.5 3 Norte 13 Sudoeste 0 1011.1 0.4 86
2019-11-29 05:00:00 12.8 6 Sudoeste 19 Sudoeste 0 1010.8 0.4 81
2019-11-29 04:00:00 13.8 11 Sudoeste 23 Sudoeste 0 1010.5 -0.2 78
2019-11-29 03:00:00 13.4 9 Sur 21 Sudoeste 0 1010.7 -0.8 79
2019-11-29 02:00:00 14.6 12 Sudoeste 30 Sudoeste 0 1010.4 -1.1 77
2019-11-29 01:00:00 13.8 14 Sudoeste 27 Sudoeste 0 1010.7 -1 88
2019-11-29 00:00:00 12.9 9 Sur 19 Sudeste 0 1011.5 0.1 89
2019-11-28 23:00:00 12.8 13 Sudeste 17 Sudeste 0 1011.5 0.1 86
2019-11-28 22:00:00 13.2 5 Sudeste 23 Sudoeste 0 1011.7 0.3 79
2019-11-28 21:00:00 14 11 Sur 23 Sur 0 1011.4 0.4 78
2019-11-28 20:00:00 14.5 12 Sur 22 Sur 0 1011.4 0.5 77
2019-11-28 19:00:00 14.6 10 Sur 21 Sur 0 1011.4 1.1 80
2019-11-28 18:00:00 15.2 12 Sur 26 Sudoeste 0 1011 0.9 75
2019-11-28 17:00:00 16.5 11 Sudoeste 32 Sudoeste 0 1010.9 0.7 69
2019-11-28 16:00:00 18.7 19 Sudoeste 33 Sur 0 1010.3 -0.4 62
2019-11-28 15:00:00 19.9 18 Sudoeste 33 Sudoeste 0 1010.1 -1.4 55
2019-11-28 14:00:00 21.4 14 Sudoeste 29 Sur 0 1010.2 -0.9 38
2019-11-28 13:00:00 21.4 10 Sudoeste 24 Sudoeste 0 1010.7 -0.2 36
2019-11-28 12:00:00 20.4 10 Sudoeste 25 Oeste 0 1011.5 1.4 44
2019-11-28 11:00:00 19.1 11 Sur 20 Sur 0 1011.1 1.7 57
2019-11-28 10:00:00 16.7 6 Sur 13 Sur 0 1010.9 2.3 69
2019-11-28 09:00:00 13.5 9 Sur 18 Sur 0 1010.1 2.2 81
2019-11-28 08:00:00 10.6 5 Sur 15 Sur 0 1009.4 2.1 89
2019-11-28 07:00:00 9.8 7 Sudeste 15 Sudeste 0 1008.6 1.6 91
2019-11-28 06:00:00 9.7 4 Sudeste 15 Sudoeste 0 1007.9 0.6 90
2019-11-28 05:00:00 10.2 10 Sudoeste 18 Sudoeste 0 1007.3 0.6 91
2019-11-28 04:00:00 10 7 Sur 13 Sur 0 1007 0 92
2019-11-28 03:00:00 10.4 5 Sudoeste 10 Sudoeste 0 1007.3 -0.3 91
2019-11-28 02:00:00 10.4 5 Sudoeste 12 Sur 0 1006.7 -0.8 91
2019-11-28 01:00:00 10.4 5 Sur 10 Sur 0 1007 -0.5 90
2019-11-28 00:00:00 10.8 4 Sudoeste 8 Norte 0 1007.6 0.3 91
2019-11-27 23:00:00 10.8 3 Oeste 9 Sur 0 1007.5 0.4 91
2019-11-27 22:00:00 11.6 4 Oeste 12 Noroeste 0 1007.5 0.7 91
2019-11-27 21:00:00 12.1 7 Sudoeste 11 Sudoeste 0 1007.3 0.9 89
2019-11-27 20:00:00 13 6 Sudoeste 9 Sudoeste 0 1007.1 1.3 83
2019-11-27 19:00:00 14.8 4 Sudeste 11 Sudeste 0 1006.8 1.4 76
2019-11-27 18:00:00 16.1 4 Sudeste 14 Sudoeste 0 1006.4 1.5 72
2019-11-27 17:00:00 18.6 8 Sudoeste 24 Sudoeste 0 1005.8 0.7 63
2019-11-27 16:00:00 20.5 9 Sur 17 Sudoeste 0 1005.4 0 56
2019-11-27 15:00:00 21.2 6 Sudoeste 15 Sudoeste 0 1004.9 -0.8 50
2019-11-27 14:00:00 21 7 Oeste 24 Oeste 0 1005.1 -1 50
2019-11-27 06:00:00 16.2 7 Sudoeste 27 Sur 0 1002.5 -1 91
2019-11-27 05:00:00 16.1 12 Sur 33 Sudoeste 0 1002.7 -0.4 92
2019-11-27 04:00:00 15.8 14 Sur 37 Sudoeste 0 1003 -0.9 92
2019-11-27 03:00:00 16 17 Sudoeste 48 Sudoeste 0 1003.5 -1.5 90
2019-11-27 02:00:00 16.4 24 Sudoeste 51 Sudoeste 0 1003.1 -2.4 87
2019-11-27 01:00:00 15.6 13 Sur 32 Sur 0 1003.9 -1.9 91
2019-11-27 00:00:00 15.7 12 Sur 27 Sur 0 1005 -1.7 91
2019-11-26 23:00:00 15.5 18 Sudoeste 40 Sudoeste 0 1005.5 -1.3 89
2019-11-26 22:00:00 14.8 16 Sudoeste 35 Sudoeste 0 1005.8 -0.7 92
2019-11-26 21:00:00 14.2 11 Sudoeste 26 Sur 0 1006.7 0.2 93
2019-11-26 20:00:00 14.7 13 Sur 23 Sudoeste 0 1006.8 0.1 92
2019-11-26 19:00:00 15 8 Sudoeste 20 Sudoeste 0 1006.5 -0.3 88
2019-11-26 18:00:00 15.9 9 Sur 30 Sur 0 1006.5 -0.1 78
2019-11-26 17:00:00 17.4 14 Sur 31 Sudoeste 0 1006.7 -0.7 65
2019-11-26 16:00:00 19.1 16 Sur 35 Sur 0 1006.8 -1.3 61
2019-11-26 15:00:00 19.7 17 Sur 32 Sudoeste 0 1006.6 -2.5 64
2019-11-26 14:00:00 19.7 16 Sur 31 Sur 0 1007.4 -2.1 66
2019-11-26 13:00:00 19.9 13 Sur 25 Sudoeste 0 1008.1 -1.7 67
2019-11-26 12:00:00 19.4 10 Sudoeste 22 Sudoeste 0 1009.1 -0.8 71
2019-11-26 11:00:00 17.9 9 Sur 17 Sur 0 1009.5 0 80
2019-11-26 10:00:00 15.2 9 Sur 18 Sudoeste 0 1009.8 0.2 87
2019-11-26 09:00:00 11.6 8 Sudoeste 14 Sudoeste 0 1009.9 0.4 91
2019-11-26 08:00:00 8.7 7 Sudoeste 12 Sur 0 1009.5 -0.2 94
2019-11-26 07:00:00 8.3 6 Sur 11 Sur 0 1009.6 -0.1 93
2019-11-26 06:00:00 9 6 Sur -- -- -- 1009.5 -0.6 94
2019-11-26 05:00:00 8.5 6 Sur 12 Sudoeste 0 1009.7 -0.5 94
2019-11-26 04:00:00 8.3 5 Sudoeste 9 Sur 0 1009.7 -1 94
2019-11-26 03:00:00 8.5 5 Sur 12 Sudoeste 0 1010.1 -0.7 93
2019-11-26 02:00:00 9.1 7 Sur 12 Sudoeste 0 1010.2 -0.5 93
2019-11-26 01:00:00 9.2 6 Sur 9 Sur 0 1010.7 0 92
2019-11-26 00:00:00 9.3 7 Sudeste 10 Sudeste 0 1010.8 0.3 91
2019-11-25 23:00:00 10 6 Sudoeste 11 Sudoeste 0 1010.7 0.9 88
2019-11-25 22:00:00 10.6 6 Sudoeste 10 Sudoeste 0 1010.7 1.6 85
2019-11-25 21:00:00 11.4 5 Sur 12 Sudoeste 0 1010.5 2.1 79
2019-11-25 20:00:00 13.1 7 Sudoeste 12 Sudoeste 0 1009.8 1.9 72
2019-11-25 19:00:00 14 6 Sudoeste 13 Noroeste 0 1009.1 1.9 67
2019-11-25 18:00:00 15.2 4 Oeste 17 Noroeste 0 1008.4 1.8 63
2019-11-25 17:00:00 17 7 Norte 16 Noroeste 0 1007.9 1.4 57
2019-11-25 16:00:00 19.9 9 Norte 17 Norte 0 1007.2 0.4 49
2019-11-25 15:00:00 19.5 8 Noroeste 24 Noroeste 0 1006.6 -1 47
2019-11-25 14:00:00 20.6 6 Sudoeste 18 Sudoeste 0 1006.5 -1.2 45
2019-11-25 13:00:00 20.9 9 Sudoeste 23 Sur 0 1006.8 -1 46
2019-11-25 12:00:00 19.2 10 Sudoeste 22 Sur 0 1007.6 -0.3 55
2019-11-25 11:00:00 17.5 7 Norte 16 Oeste 0 1007.7 0.3 62
2019-11-25 10:00:00 15.3 0 Calma 8 Sur 0 1007.8 0.9 70
2019-11-25 09:00:00 9.9 2 Oeste 9 Sudoeste 0 1007.9 1.4 92
2019-11-25 08:00:00 6.6 2 Sur 13 Noroeste 0 1007.4 0.9 94
2019-11-25 07:00:00 6.8 3 Sudeste 11 Noroeste 0 1006.9 0.3 93
2019-11-25 06:00:00 7.3 4 Sudoeste 9 Oeste 0 1006.5 -0.9 93
2019-11-25 05:00:00 7.2 3 Noroeste 10 Sur 0 1006.5 -1.2 92
2019-11-25 04:00:00 6.7 5 Sur 10 Sur 0 1006.6 -1 91
2019-11-25 03:00:00 7.2 4 Sur 12 Sudoeste 0 1007.4 0.2 89
2019-11-25 02:00:00 7.9 4 Sudoeste 13 Sudeste 0 1007.7 0.7 90
2019-11-25 01:00:00 7.9 4 Sur 15 Sudeste 0 1007.6 0.2 92
2019-11-25 00:00:00 6.4 3 Norte 9 Norte 0 1007.2 -0.5 92
2019-11-24 23:00:00 6.7 4 Este 6 Sudeste 0 1007 -0.5 90
2019-11-24 22:00:00 8 3 Noroeste 8 Sudeste 0 1007.4 0.1 85
2019-11-24 21:00:00 8.9 3 Sudeste 11 Sudeste 0 1007.7 1.1 82
2019-11-24 20:00:00 9.3 4 Sudoeste 11 Sudeste 0 1007.5 1.5 78
2019-11-24 19:00:00 10.9 4 Sur 10 Sur 0 1007.3 1.8 73
2019-11-24 18:00:00 12.4 6 Sur 17 Noroeste 0 1006.6 1.7 69
2019-11-24 17:00:00 14.4 8 Noroeste 17 Noroeste 0 1006 1.5 61
2019-11-24 16:00:00 16.6 5 Oeste 23 Noroeste 0 1005.5 1 52
2019-11-24 15:00:00 16.4 10 Noroeste 30 Noroeste 0 1004.9 0.2 54
2019-11-24 14:00:00 16.1 18 Noroeste 36 Noroeste 0 1004.5 -0.9 52
2019-11-24 13:00:00 16.2 18 Noroeste 36 Noroeste 0 1004.5 -0.2 51
2019-11-24 12:00:00 16.8 11 Noroeste 30 Noroeste 0 1004.7 0.9 51
2019-11-24 11:00:00 15.3 11 Noroeste 37 Noroeste 0 1005.4 2.1 52
2019-11-24 10:00:00 14.5 14 Noroeste 31 Noroeste 0 1004.7 2.4 55
2019-11-24 09:00:00 14.5 10 Oeste 34 Noroeste 0 1003.8 2.3 54
2019-11-24 08:00:00 13.5 7 Oeste 28 Noroeste 0 1003.3 2.5 58
2019-11-24 07:00:00 13.6 16 Noroeste 34 Oeste 0 1002.3 2.4 57
2019-11-24 06:00:00 13.5 9 Noroeste 31 Noroeste 0 1001.5 2.2 57
2019-11-24 05:00:00 13.2 6 Oeste -- -- -- 1000.8 2 59
2019-11-24 04:00:00 12.6 6 Noroeste 19 Oeste 0 999.9 1 62
2019-11-24 03:00:00 11 4 Oeste 18 Sudeste 0 999.3 1.1 72
2019-11-24 02:00:00 12 9 Sudeste 11 Sudeste 0 998.8 0.8 68
2019-11-24 01:00:00 12.3 5 Este 15 Sudeste 0 998.9 1.4 69
2019-11-24 00:00:00 14.1 7 Sudoeste 31 Noroeste 0 998.2 2 56
2019-11-23 23:00:00 14.2 9 Noroeste 34 Noroeste 0 998 2.6 56
2019-11-23 22:00:00 14.3 14 Noroeste 48 Noroeste 0 997.5 2.5 56
2019-11-23 21:00:00 14.5 18 Noroeste 57 Noroeste 0 996.2 2.8 53
2019-11-23 20:00:00 15 18 Oeste 56 Oeste 0 995.4 3 50
2019-11-23 19:00:00 14.2 14 Oeste 55 Noroeste 0 995 3.4 57
2019-11-23 18:00:00 14.4 18 Oeste 49 Noroeste 0 993.4 2.3 54
2019-11-23 17:00:00 13.3 13 Noroeste 46 Noroeste 0 992.4 1.7 65
2019-11-23 16:00:00 13.7 16 Noroeste 42 Noroeste 0 991.6 1.5 63
2019-11-23 15:00:00 13.9 8 Oeste 34 Oeste 0 991.1 1.6 70
2019-11-23 14:00:00 14.1 14 Noroeste 27 Noroeste 0 990.7 1 68
2019-11-23 13:00:00 13.2 14 Noroeste 44 Noroeste 0 990.1 0.9 74
2019-11-23 12:00:00 17.5 9 Sudoeste 31 Sudoeste 0 989.5 1.3 55
2019-11-23 11:00:00 16.4 16 Sudoeste 39 Sudoeste 0 989.7 1.3 61
2019-11-23 10:00:00 17.2 15 Sudoeste 37 Oeste 0 989.2 0.8 57
2019-11-23 09:00:00 16 17 Sudoeste 38 Sudoeste 0 988.2 0.1 57
2019-11-23 08:00:00 13.1 11 Sur 23 Sur 0 988.4 0.2 81
2019-11-23 07:00:00 14.3 10 Sur 37 Sudoeste 0 988.4 0.1 82
2019-11-23 06:00:00 14.7 15 Sudoeste 36 Sudoeste 0 988.1 -0.9 82
2019-11-23 05:00:00 15.5 15 Sudoeste 33 Sudoeste 0 988.2 -1.4 94
2019-11-23 04:00:00 16.1 18 Sudoeste 39 Sudoeste 0 988.3 -2.6 95
2019-11-23 03:00:00 16.2 15 Sudoeste 38 Sudoeste 0 989 -2.8 95
2019-11-23 02:00:00 16 21 Sur 46 Sur 0.6 989.6 -3 94
2019-11-23 01:00:00 15.5 21 Sur 44 Sur 1.4 990.9 -3.5 94
2019-11-23 00:00:00 15.7 22 Sur 50 Sur 1.4 991.8 -3.8 94
2019-11-22 23:00:00 14.7 19 Sur 41 Sur 2.2 992.6 -3.7 95
2019-11-22 22:00:00 15 18 Sur 32 Sur 2.6 994.4 -2.4 94
2019-11-22 21:00:00 15.4 13 Sur 35 Sur 0.6 995.6 -1.8 92
2019-11-22 20:00:00 15.8 18 Sur 33 Sur 0 996.3 -1.3 87
2019-11-22 19:00:00 15.9 16 Sur 34 Sur 0 996.8 -1.2 87
2019-11-22 18:00:00 16 12 Sur 28 Sur 0 997.4 -1 87
2019-11-22 17:00:00 16.6 15 Sur 33 Sur 0 997.6 -1.7 86
2019-11-22 16:00:00 16.6 14 Sudoeste 37 Sudoeste 0.8 998 -2.5 88
2019-11-22 15:00:00 17.7 20 Sur 41 Sudoeste 0 998.4 -3.4 81
2019-11-22 14:00:00 17.6 15 Sur 38 Sudoeste 0 999.3 -3.5 86
2019-11-22 13:00:00 16.6 8 Sudoeste 23 Sudoeste 1 1000.5 -2.5 93
2019-11-22 12:00:00 16.2 9 Sudoeste 16 Sur 0 1001.8 -1.4 95
2019-11-22 11:00:00 13.8 5 Sudoeste 9 Sudoeste 0 1002.8 -0.4 98
2019-11-22 10:00:00 12.3 4 Sur 9 Sur 1.2 1003 -0.2 98
2019-11-22 09:00:00 11.2 4 Sur 14 Sur 0.8 1003.2 -0.1 98
2019-11-22 08:00:00 10.1 9 Sur 14 Sudeste 0 1003.2 -0.6 97
2019-11-22 07:00:00 10.4 4 Sudoeste 9 Sudoeste 0 1003.2 -0.8 97
2019-11-22 06:00:00 10 4 Oeste 7 Sur 0.2 1003.3 -1.4 96
2019-11-22 05:00:00 9.8 4 Oeste 9 Oeste 0.2 1003.8 -1.1 96
2019-11-22 04:00:00 8.9 2 Sudoeste 8 Sur 0 1004 -1.4 95
2019-11-22 03:00:00 8.9 4 Sudoeste 6 Sudoeste 0 1004.7 -1 94
2019-11-22 02:00:00 8.9 3 Sudoeste 6 Sur 0 1004.9 -0.8 93
2019-11-22 01:00:00 9.2 4 Noroeste 6 Noroeste 0 1005.4 -0.6 93
2019-11-22 00:00:00 9.3 3 Sudoeste 5 Sudoeste 0 1005.7 -0.3 91
2019-11-21 23:00:00 10.2 3 Sudoeste 6 Sur 0 1005.7 -0.2 88
2019-11-21 22:00:00 10.6 4 Sur 11 Sur 0 1006 0.6 85
2019-11-21 21:00:00 10.9 7 Sur 11 Sur 0 1006 0.8 81
2019-11-21 20:00:00 11.3 5 Sur 11 Sur 0 1005.9 1.2 78
2019-11-21 19:00:00 12.1 5 Sur 10 Sur 0 1005.4 1 71
2019-11-21 18:00:00 13.8 6 Sudoeste 23 Sudoeste 0 1005.2 1 62
2019-11-21 17:00:00 14.6 10 Sudoeste 26 Sudoeste 0 1004.7 0.5 55
2019-11-21 16:00:00 15.8 12 Sudoeste 24 Oeste 0 1004.4 -0.1 55
2019-11-21 15:00:00 16.4 12 Sudoeste 27 Sudoeste 0 1004.2 -0.9 57
2019-11-21 14:00:00 17.2 15 Sudoeste 33 Sudoeste 0 1004.2 -1.1 54
2019-11-21 13:00:00 17.4 16 Sudoeste 35 Sudoeste 0 1004.5 -0.7 56
2019-11-21 12:00:00 16.6 13 Sudoeste 33 Sudoeste 0 1005.1 -0.1 64
2019-11-21 11:00:00 15.7 13 Sudoeste 24 Sur 0 1005.3 0.5 75
2019-11-21 10:00:00 12.8 3 Sur 9 Sudoeste 0 1005.2 0.5 95
2019-11-21 09:00:00 10.4 3 Sudoeste 9 Sur 0 1005.2 0.7 98
2019-11-21 08:00:00 7.9 4 Sudoeste 9 Sudoeste 0 1004.8 -0.1 98
2019-11-21 07:00:00 8.5 4 Sur 7 Sudoeste 0 1004.7 -0.1 97
2019-11-21 06:00:00 9.7 4 Sur 9 Sudoeste 0.2 1004.5 -0.5 97
2019-11-21 05:00:00 9.8 4 Sudoeste 15 Sudoeste 0.4 1004.9 -0.5 98
2019-11-21 04:00:00 8.6 4 Sudoeste 12 Sur 0.2 1004.8 -1 97
2019-11-21 03:00:00 8.2 5 Sudeste 8 Sudeste 0 1005 -1.4 97
2019-11-21 02:00:00 8.5 5 Oeste 13 Sur 0 1005.4 -1.2 97
2019-11-21 01:00:00 7.6 7 Sur 10 Sur 0 1005.8 -1 96
2019-11-21 00:00:00 7.3 2 Noroeste 9 Sudoeste 0 1006.4 -0.5 95
2019-11-20 23:00:00 7.4 5 Sur 7 Sur 0 1006.6 -0.5 94
2019-11-20 22:00:00 8.7 5 Sur 9 Sudoeste 0 1006.8 -0.2 93
2019-11-20 21:00:00 9.7 2 Sur 6 Este 0 1006.9 0 92
2019-11-20 20:00:00 10 4 Sudeste 12 Sudeste 0 1007.1 0.1 89
2019-11-20 19:00:00 10.4 5 Sudoeste 8 Sudoeste 0 1007 -0.1 86
2019-11-20 18:00:00 11.4 3 Sudoeste 6 Oeste 0 1006.9 -0.5 81
2019-11-20 17:00:00 13.5 3 Sur 11 Sur 0 1007 -1 71
2019-11-20 16:00:00 14.9 7 Sur 15 Sur 0 1007.1 -1.6 66
2019-11-20 15:00:00 14.8 8 Sur 17 Sur 0 1007.4 -2.1 62
2019-11-20 14:00:00 15 2 Sur 6 Sudoeste 0 1008 -2.2 57
2019-11-20 13:00:00 13.9 4 Sudoeste 10 Sur 0 1008.7 -1.8 59
2019-11-20 12:00:00 13.1 4 Sur 6 Sudoeste 0 1009.5 -0.9 68
2019-11-20 11:00:00 10.8 4 Sur 7 Sur 0 1010.2 -0.1 87
2019-11-20 10:00:00 7.4 5 Sur 10 Sur 0 1010.5 0.3 92
2019-11-20 09:00:00 5.6 6 Sur 8 Sur 0 1010.4 0.1 95
2019-11-20 08:00:00 3.4 5 Sudoeste 14 Sudoeste 0 1010.3 -0.2 96
2019-11-20 07:00:00 2.7 8 Sur 13 Sur 0 1010.2 -0.7 96
2019-11-20 06:00:00 2.9 6 Sur 12 Sur 0 1010.3 -1 95
2019-11-20 05:00:00 3.3 8 Sudoeste 15 Sudoeste 0 1010.5 -1 95
2019-11-20 04:00:00 3.4 6 Sur 11 Sur 0 1010.9 -1 94
2019-11-20 03:00:00 3.4 7 Sur 11 Sur 0 1011.3 -1 94
2019-11-20 02:00:00 3.9 6 Sudoeste 10 Sudoeste 0 1011.5 -1.1 93
2019-11-20 01:00:00 4.2 9 Sudoeste 12 Sudoeste 0 1011.9 -0.6 92
2019-11-20 00:00:00 4.3 5 Sur 8 Sur 0 1012.3 -0.1 91
2019-11-19 23:00:00 4.7 6 Sur 10 Sur 0 1012.6 0.4 89
2019-11-19 22:00:00 5.3 5 Sur 9 Sur 0 1012.5 0.6 85
2019-11-19 21:00:00 6.3 4 Sudoeste 8 Sur 0 1012.4 0.8 80
2019-11-19 20:00:00 6.8 4 Sudoeste 9 Sudoeste 0 1012.2 0.9 78
2019-11-19 19:00:00 8.7 5 Sudoeste 8 Sudoeste 0 1011.9 0.7 70
2019-11-19 18:00:00 11.2 3 Sudoeste 12 Sudoeste 0 1011.6 0.6 59
2019-11-19 17:00:00 13.9 8 Sudoeste 17 Sudoeste 0 1011.3 0 46
2019-11-19 16:00:00 16.1 7 Sudoeste 21 Sur 0 1011.2 -0.5 43
2019-11-19 15:00:00 16.2 5 Oeste 21 Oeste 0 1011 -1.2 43
2019-11-19 14:00:00 16.6 8 Oeste 21 Oeste 0 1011.3 -1.4 45
2019-11-19 13:00:00 14.7 6 Oeste 20 Sudoeste 0 1011.7 -0.9 51
2019-11-19 12:00:00 15.8 9 Sudoeste 19 Sur 0 1012.2 -0.4 58
2019-11-19 11:00:00 14.1 8 Sudoeste 15 Oeste 0.2 1012.7 0.7 65
2019-11-19 10:00:00 11.1 3 Sudeste 11 Sur 0 1012.6 0.9 87
2019-11-19 09:00:00 7.6 7 Sur 14 Sur 0 1012.6 1.3 94
2019-11-19 08:00:00 5.4 4 Sur 12 Sur 0 1012 0.8 95
2019-11-19 07:00:00 5.7 6 Sur 13 Sudoeste 0 1011.7 0.7 94
2019-11-19 06:00:00 6.2 6 Sur 13 Sudoeste 0 1011.3 0.2 93
2019-11-19 05:00:00 7.2 7 Sudoeste 12 Sudoeste 0 1011.2 0.3 93
2019-11-19 04:00:00 8.4 2 Sudoeste 10 Oeste 0 1011 0 91
2019-11-19 03:00:00 8.2 3 Sudoeste 9 Sudoeste 0 1011.1 0.3 89
2019-11-19 02:00:00 9.4 3 Oeste 9 Oeste 0.2 1010.9 0.9 87
2019-11-19 01:00:00 9.9 5 Noroeste 19 Norte 0.2 1011 1.5 81
2019-11-19 00:00:00 11 14 Norte 33 Norte 0 1010.8 1.5 71
2019-11-18 23:00:00 12 15 Norte 33 Norte 0 1010 1.5 64
2019-11-18 22:00:00 11.9 15 Norte 28 Norte 0 1009.5 1.8 64
2019-11-18 21:00:00 11.7 15 Norte 31 Norte 0 1009.3 2.6 64
2019-11-18 20:00:00 11.5 19 Norte 44 Norte 0 1008.5 2.3 64
2019-11-18 19:00:00 11.7 19 Norte 44 Norte 0 1007.7 2.3 66
2019-11-18 18:00:00 11.7 24 Norte 41 Norte 0.2 1006.7 2.1 72
2019-11-18 17:00:00 12.2 19 Norte 43 Norte 0 1006.2 2.7 66
2019-11-18 16:00:00 12.9 28 Norte 50 Norte 0 1005.4 1.7 69
2019-11-18 15:00:00 13.7 23 Norte 43 Norte 0.4 1004.6 0.6 70
2019-11-18 14:00:00 13.3 28 Norte 46 Norte 0.2 1003.5 -0.1 77
2019-11-18 13:00:00 13.3 23 Norte 40 Norte 0 1003.7 0.4 83
2019-11-18 12:00:00 13.5 17 Norte 28 Norte 0.2 1004 0.6 82
2019-11-18 11:00:00 13.6 11 Norte 22 Norte 0 1003.6 1 80
2019-11-18 10:00:00 12.5 7 Norte 21 Nordeste 0 1003.3 0.9 87
2019-11-18 09:00:00 11.4 8 Norte 13 Norte 0.2 1003.4 1 95
2019-11-18 08:00:00 10.6 4 Noroeste 9 Sur 0 1002.6 0.4 96
2019-11-18 07:00:00 10.5 3 Sur 11 Norte 0 1002.4 -0.1 96
2019-11-18 06:00:00 10.6 3 Oeste 6 Noroeste 0.2 1002.4 -0.6 95
2019-11-18 05:00:00 10.8 5 Norte 8 Sur 0 1002.2 -1 94
2019-11-18 04:00:00 11.3 2 Oeste 11 Sur 0.8 1002.5 -1.5 92
2019-11-18 03:00:00 11.4 6 Sur 12 Sur 0.8 1003 -1.7 90
2019-11-18 02:00:00 11.4 7 Sur 16 Sudoeste 0.2 1003.2 -1.8 84
2019-11-18 01:00:00 10.9 5 Sudoeste 11 Sur 0 1004 -2.1 80
2019-11-18 00:00:00 10.3 5 Sur 9 Sur 0 1004.7 -1.6 79
2019-11-17 23:00:00 10.8 4 Sur 12 Sur 0 1005 -1.5 75
2019-11-17 22:00:00 11 7 Sur 15 Sur 0 1006.1 -0.5 73
2019-11-17 21:00:00 10.9 4 Sur 14 Sur 0 1006.3 0.2 73
2019-11-17 20:00:00 11.2 9 Sur 17 Sur 0 1006.5 0.4 71
2019-11-17 19:00:00 11.2 6 Sur 17 Sur 0 1006.6 0.7 68
2019-11-17 18:00:00 12.6 9 Sur 22 Sudoeste 0 1006.1 -0.1 61
2019-11-17 17:00:00 14.2 11 Sudoeste 29 Sudoeste 0 1006.1 -0.2 50
2019-11-17 16:00:00 15.9 10 Sudoeste 30 Sudoeste 0 1005.9 -0.6 49
2019-11-17 15:00:00 16 14 Sudoeste 30 Sudoeste 0 1006.2 -0.9 50
2019-11-17 14:00:00 14.6 13 Sudoeste 32 Oeste 0 1006.3 -1 52
2019-11-17 13:00:00 15.1 13 Sudoeste 27 Sudoeste 0 1006.5 -0.8 45
2019-11-17 12:00:00 15.1 13 Oeste 31 Oeste 0 1007.1 0.2 43
2019-11-17 11:00:00 16 14 Sudoeste 27 Sudoeste 0 1007.3 0.8 43
2019-11-17 10:00:00 15.1 10 Sudoeste 25 Sudoeste 0 1007.3 0.8 49
2019-11-17 09:00:00 11.8 8 Sur 15 Sudeste 0 1006.9 0.5 60
2019-11-17 08:00:00 9.5 6 Oeste 12 Sur 0 1006.5 0.4 67
2019-11-17 07:00:00 10.8 5 Sudoeste 25 Noroeste 0 1006.5 0.2 61
2019-11-17 06:00:00 11.7 4 Oeste 31 Noroeste 0 1006.4 0.1 55
2019-11-17 05:00:00 12.4 16 Noroeste 55 Noroeste 0 1006.1 -0.1 53
2019-11-17 04:00:00 12.7 15 Noroeste 48 Noroeste 0 1006.3 0 53
2019-11-17 03:00:00 13.1 15 Noroeste 47 Noroeste 0 1006.3 -0.4 49
2019-11-17 02:00:00 12.9 14 Oeste 40 Noroeste 0 1006.2 -0.8 49
2019-11-17 01:00:00 12.1 12 Noroeste 34 Noroeste 0.2 1006.3 -0.7 62
2019-11-17 00:00:00 12.3 9 Oeste 35 Noroeste 0 1006.7 -0.3 55
2019-11-16 23:00:00 11.8 10 Noroeste 33 Noroeste 0 1007 -0.2 60
2019-11-16 22:00:00 10.2 6 Oeste 22 Oeste 0 1007 0.4 70
2019-11-16 21:00:00 8.6 4 Sur 9 Sudoeste 0 1007 0.9 85
2019-11-16 20:00:00 10.6 5 Oeste 15 Noroeste 0 1007.2 1.8 78
2019-11-16 19:00:00 10.7 7 Noroeste 15 Norte 0 1006.6 1.2 79
2019-11-16 18:00:00 11 7 Norte 18 Norte 0 1006.1 1.2 77
2019-11-16 17:00:00 11.4 8 Noroeste 18 Norte 0 1005.4 -0.2 75
2019-11-16 16:00:00 11 8 Norte 14 Norte 0 1005.4 0 78
2019-11-16 15:00:00 10.5 4 Oeste 27 Nordeste 0.4 1004.9 -0.7 79
2019-11-16 14:00:00 11.9 18 Norte 31 Nordeste 0 1005.6 -0.2 68
2019-11-16 13:00:00 12.2 5 Nordeste 29 Nordeste 0 1005.4 -0.1 67
2019-11-16 12:00:00 12.2 4 Sudoeste 9 Sudoeste 0 1005.6 0.6 84
2019-11-16 11:00:00 10 6 Sur 9 Sudeste 0 1005.8 1.1 88
2019-11-16 10:00:00 8.7 5 Sur 9 Oeste 0 1005.5 1.3 90
2019-11-16 09:00:00 6.8 5 Oeste 8 Oeste 0 1005 1.8 93
2019-11-16 08:00:00 5.9 3 Oeste 5 Oeste 0 1004.7 1.6 92
2019-11-16 07:00:00 6.5 3 Sudoeste 12 Sur 0 1004.2 1.1 89
2019-11-16 06:00:00 7.2 5 Sudeste 12 Noroeste 0 1003.2 0 85
2019-11-16 05:00:00 8.1 4 Sudoeste 13 Noroeste 0 1003.1 0.2 79
2019-11-16 04:00:00 8.8 7 Noroeste 26 Oeste 0 1003.1 0.7 77
2019-11-16 03:00:00 8.7 13 Noroeste 35 Noroeste 0.2 1003.2 1.2 77
2019-11-16 02:00:00 5 2 Sudoeste 9 Sur 0 1002.9 0.8 91
2019-11-16 01:00:00 5.1 7 Sur 10 Sur 0 1002.4 0.7 89
2019-11-16 00:00:00 6 6 Sudoeste 12 Sudoeste 0 1002 0.9 88